createdAt,value
2023-05-14T00:02:02.989Z,101019.91
2023-05-14T00:04:29.230Z,101033.00
2023-05-14T00:06:55.489Z,101006.22
2023-05-14T00:09:21.716Z,101044.59
2023-05-14T00:11:47.938Z,101042.28
2023-05-14T00:14:14.150Z,101150.34
2023-05-14T00:16:40.367Z,101121.66
2023-05-14T00:19:06.645Z,101053.38
2023-05-14T00:21:32.942Z,101019.06
2023-05-14T00:23:59.146Z,101012.75
2023-05-14T00:26:25.366Z,101015.25
2023-05-14T00:28:51.576Z,101005.50
2023-05-14T00:31:17.828Z,101021.22
2023-05-14T00:33:44.085Z,100985.84
2023-05-14T00:36:10.303Z,100999.63
2023-05-14T00:38:36.505Z,101005.59
2023-05-14T00:41:02.722Z,101019.72
2023-05-14T00:43:28.923Z,101013.28
2023-05-14T00:45:55.180Z,100989.25
2023-05-14T00:48:21.430Z,101030.28
2023-05-14T00:50:47.643Z,101089.19
2023-05-14T00:53:13.861Z,101059.59
2023-05-14T00:55:40.483Z,101031.84
2023-05-14T00:58:07.521Z,101026.56
2023-05-14T01:00:33.793Z,101024.47
2023-05-14T01:03:00.103Z,100998.59
2023-05-14T01:05:26.385Z,100997.31
2023-05-14T01:07:58.958Z,100987.38
2023-05-14T01:10:27.794Z,100987.03
2023-05-14T01:12:59.859Z,101008.38
2023-05-14T01:15:26.803Z,101028.47
2023-05-14T01:17:59.867Z,101055.63
2023-05-14T01:20:26.401Z,101018.56
2023-05-14T01:22:52.748Z,101004.69
2023-05-14T01:25:18.955Z,101002.56
2023-05-14T01:27:45.118Z,100998.38
2023-05-14T01:30:17.854Z,100976.34
2023-05-14T01:32:44.782Z,100881.47
2023-05-14T01:35:11.040Z,101188.91
2023-05-14T01:37:37.266Z,101143.91
2023-05-14T01:40:03.830Z,101101.91
2023-05-14T01:42:30.076Z,101054.13
2023-05-14T01:44:56.292Z,101045.25
2023-05-14T01:47:22.531Z,101144.31
2023-05-14T01:49:48.753Z,101110.75
2023-05-14T01:52:14.983Z,101062.63
2023-05-14T01:54:41.193Z,101036.97
2023-05-14T01:57:07.417Z,100998.03
2023-05-14T01:59:33.644Z,101001.00
2023-05-14T02:01:59.889Z,100994.97
2023-05-14T02:04:26.370Z,100978.78
2023-05-14T02:06:52.681Z,101007.41
2023-05-14T02:09:18.892Z,101037.66
2023-05-14T02:11:45.102Z,101013.97
2023-05-14T02:14:11.313Z,101003.53
2023-05-14T02:16:37.534Z,100984.00
2023-05-14T02:19:03.775Z,100976.19
2023-05-14T02:21:30.298Z,100970.41
2023-05-14T02:23:56.512Z,100946.03
2023-05-14T02:26:22.727Z,100936.75
2023-05-14T02:28:48.937Z,100947.16
2023-05-14T02:31:15.212Z,100926.66
2023-05-14T02:33:41.465Z,101076.78
2023-05-14T02:36:07.696Z,101114.69
2023-05-14T02:38:33.919Z,101085.59
2023-05-14T02:41:00.128Z,101057.03
2023-05-14T02:43:26.348Z,101029.13
2023-05-14T02:45:52.561Z,101013.63
2023-05-14T02:48:18.804Z,101019.03
2023-05-14T02:50:45.008Z,101058.38
2023-05-14T02:53:11.227Z,101050.66
2023-05-14T02:55:37.434Z,101034.00
2023-05-14T02:58:03.677Z,101019.38
2023-05-14T03:00:29.903Z,101001.69
2023-05-14T03:02:56.593Z,100981.84
2023-05-14T03:05:23.423Z,100974.25
2023-05-14T03:07:50.781Z,100976.28
2023-05-14T03:10:17.031Z,100981.97
2023-05-14T03:12:43.244Z,100980.38
2023-05-14T03:15:09.627Z,100987.53
2023-05-14T03:17:36.189Z,100963.03
2023-05-14T03:20:02.719Z,100970.28
2023-05-14T03:22:28.926Z,101036.22
2023-05-14T03:24:55.130Z,101161.53
2023-05-14T03:27:21.353Z,101206.03
2023-05-14T03:29:47.582Z,101151.56
2023-05-14T03:32:13.802Z,101141.66
2023-05-14T03:34:40.015Z,101098.72
2023-05-14T03:37:06.215Z,101042.97
2023-05-14T03:39:32.426Z,101021.13
2023-05-14T03:41:58.653Z,101018.06
2023-05-14T03:44:25.042Z,101007.06
2023-05-14T03:46:51.338Z,100992.69
2023-05-14T03:49:17.557Z,100993.13
2023-05-14T03:51:43.763Z,101000.50
2023-05-14T03:54:10.000Z,101005.13
2023-05-14T03:56:36.220Z,101002.53
2023-05-14T03:59:02.426Z,100990.44
2023-05-14T04:01:28.648Z,100980.53
2023-05-14T04:03:55.066Z,100971.94
2023-05-14T04:06:21.392Z,100979.31
2023-05-14T04:08:47.660Z,100982.03
2023-05-14T04:11:13.870Z,100984.66
2023-05-14T04:13:40.061Z,100984.16
2023-05-14T04:16:06.366Z,100978.75
2023-05-14T04:18:32.636Z,100976.97
2023-05-14T04:20:58.902Z,100998.38
2023-05-14T04:23:25.104Z,101106.47
2023-05-14T04:25:51.328Z,101103.72
2023-05-14T04:28:17.570Z,101188.91
2023-05-14T04:30:43.790Z,101120.56
2023-05-14T04:33:10.055Z,101096.47
2023-05-14T04:35:36.299Z,101062.72
2023-05-14T04:38:02.506Z,101033.94
2023-05-14T04:40:28.723Z,101001.03
2023-05-14T04:42:54.935Z,101018.47
2023-05-14T04:45:21.167Z,101069.66
2023-05-14T04:47:47.417Z,101158.78
2023-05-14T04:50:13.661Z,101153.03
2023-05-14T04:52:39.880Z,101225.81
2023-05-14T04:55:06.332Z,101227.59
2023-05-14T04:57:32.538Z,101389.84
2023-05-14T04:59:58.770Z,101464.09
2023-05-14T05:02:25.020Z,101439.50
2023-05-14T05:04:51.281Z,101335.81
2023-05-14T05:07:17.510Z,101353.25
2023-05-14T05:09:43.791Z,101314.31
2023-05-14T05:12:10.008Z,101436.94
2023-05-14T05:14:36.248Z,101360.47
2023-05-14T05:17:02.457Z,101588.72
2023-05-14T05:19:39.553Z,101547.00
2023-05-14T05:22:09.676Z,101720.63
2023-05-14T05:24:35.897Z,101870.53
2023-05-14T05:27:02.105Z,101860.59
2023-05-14T05:29:28.326Z,101823.41
2023-05-14T05:31:54.572Z,101806.06
2023-05-14T05:34:20.823Z,101782.09
2023-05-14T05:36:47.047Z,101746.91
2023-05-14T05:39:13.273Z,101731.44
2023-05-14T05:41:39.502Z,101724.31
2023-05-14T05:44:05.719Z,101714.59
2023-05-14T05:46:31.988Z,101697.47
2023-05-14T05:48:58.236Z,101669.88
2023-05-14T05:51:24.460Z,101608.81
2023-05-14T05:53:50.655Z,101499.88
2023-05-14T05:56:16.892Z,101407.97
2023-05-14T05:58:43.116Z,101218.47
2023-05-14T06:01:09.334Z,101226.97
2023-05-14T06:03:35.539Z,101054.59
2023-05-14T06:06:01.746Z,100575.66
2023-05-14T06:08:27.958Z,100425.78
2023-05-14T06:10:54.168Z,100587.00
2023-05-14T06:13:20.370Z,100904.78
2023-05-14T06:15:46.601Z,100958.34
2023-05-14T06:18:12.808Z,100905.72
2023-05-14T06:20:39.026Z,100968.84
2023-05-14T06:23:05.235Z,100724.16
2023-05-14T06:25:31.439Z,100606.53
2023-05-14T06:27:57.651Z,100342.66
2023-05-14T06:30:24.018Z,100157.13
2023-05-14T06:32:50.369Z,99962.78
2023-05-14T06:35:16.609Z,99427.56
2023-05-14T06:37:42.814Z,98469.06
2023-05-14T06:40:09.211Z,98629.38
2023-05-14T06:42:35.445Z,98033.13
2023-05-14T06:45:01.701Z,98436.44
2023-05-14T06:47:27.934Z,98685.03
2023-05-14T06:49:54.160Z,98399.44
2023-05-14T06:52:20.361Z,98931.59
2023-05-14T06:54:46.572Z,98920.28
2023-05-14T06:57:12.789Z,99032.91
2023-05-14T06:59:39.057Z,98995.31
2023-05-14T07:02:05.269Z,99176.59
2023-05-14T07:04:31.546Z,99030.94
2023-05-14T07:06:57.784Z,98887.63
2023-05-14T07:09:23.986Z,98712.16
2023-05-14T07:11:50.178Z,98767.22
2023-05-14T07:14:16.391Z,98446.53
2023-05-14T07:16:42.615Z,98628.56
2023-05-14T07:19:08.927Z,98572.00
2023-05-14T07:21:35.276Z,98626.94
2023-05-14T07:24:01.488Z,98380.00
2023-05-14T07:26:27.706Z,98524.69
2023-05-14T07:28:53.929Z,98639.66
2023-05-14T07:31:20.255Z,98769.81
2023-05-14T07:33:46.538Z,98933.47
2023-05-14T07:36:12.746Z,98704.91
2023-05-14T07:38:38.964Z,98894.19
2023-05-14T07:41:05.278Z,99020.38
2023-05-14T07:43:31.474Z,98801.34
2023-05-14T07:45:57.695Z,98945.47
2023-05-14T07:48:23.952Z,99057.50
2023-05-14T07:50:50.237Z,99093.41
2023-05-14T07:53:16.458Z,99551.69
2023-05-14T07:55:42.673Z,99190.69
2023-05-14T07:58:08.873Z,98897.84
2023-05-14T08:00:35.088Z,98819.41
2023-05-14T08:03:01.467Z,98588.75
2023-05-14T08:05:27.778Z,99049.28
2023-05-14T08:07:53.982Z,98591.44
2023-05-14T08:10:20.311Z,98584.06
2023-05-14T08:12:46.562Z,98790.09
2023-05-14T08:15:12.806Z,98906.16
2023-05-14T08:17:39.062Z,99497.47
2023-05-14T08:20:05.889Z,99536.13
2023-05-14T08:22:32.088Z,99739.34
2023-05-14T08:24:58.295Z,99927.78
2023-05-14T08:27:24.764Z,99712.31
2023-05-14T08:29:50.978Z,100167.69
2023-05-14T08:32:23.383Z,100085.03
2023-05-14T08:34:50.306Z,99859.06
2023-05-14T08:37:16.503Z,99879.44
2023-05-14T08:39:42.713Z,99753.41
2023-05-14T08:42:08.929Z,99861.31
2023-05-14T08:44:48.049Z,99917.81
2023-05-14T08:47:14.425Z,99879.06
2023-05-14T08:49:41.195Z,99757.19
2023-05-14T08:52:07.659Z,99569.03
2023-05-14T08:54:34.047Z,99234.22
2023-05-14T08:57:00.474Z,98998.38
2023-05-14T08:59:26.672Z,99146.97
2023-05-14T09:01:53.402Z,98904.66
2023-05-14T09:04:20.274Z,98850.47
2023-05-14T09:06:47.030Z,98927.63
2023-05-14T09:09:13.243Z,99249.88
2023-05-14T09:11:42.777Z,98923.97
2023-05-14T09:14:09.454Z,98967.38
2023-05-14T09:16:35.814Z,98824.69
2023-05-14T09:19:02.360Z,98131.66
2023-05-14T09:21:28.614Z,98094.81
2023-05-14T09:23:54.833Z,98360.81
2023-05-14T09:26:23.317Z,98460.41
2023-05-14T09:28:49.534Z,98159.63
2023-05-14T09:31:15.799Z,98042.69
2023-05-14T09:33:42.071Z,98112.03
2023-05-14T09:36:08.335Z,97937.81
2023-05-14T09:38:34.525Z,98219.63
2023-05-14T09:41:00.773Z,98105.28
2023-05-14T09:43:26.987Z,98219.13
2023-05-14T09:45:53.218Z,98025.81
2023-05-14T09:48:19.431Z,97782.16
2023-05-14T09:50:45.984Z,97650.53
2023-05-14T09:53:12.828Z,97608.34
2023-05-14T09:55:39.160Z,97250.97
2023-05-14T09:58:05.472Z,97377.94
2023-05-14T10:00:31.905Z,97753.59
2023-05-14T10:02:58.185Z,97349.75
2023-05-14T10:05:24.467Z,97623.94
2023-05-14T10:07:51.264Z,97171.38
2023-05-14T10:10:21.019Z,97415.38
2023-05-14T10:12:58.081Z,97317.66
2023-05-14T10:15:26.765Z,97496.16
2023-05-14T10:17:55.644Z,97703.31
2023-05-14T10:20:22.123Z,97357.53
2023-05-14T10:22:48.524Z,97873.44
2023-05-14T10:25:14.738Z,97638.97
2023-05-14T10:27:40.943Z,98204.19
2023-05-14T10:30:10.489Z,97712.41
2023-05-14T10:32:36.744Z,97812.72
2023-05-14T10:35:06.291Z,98181.47
2023-05-14T10:37:32.515Z,97774.34
2023-05-14T10:40:02.194Z,97554.72
2023-05-14T10:42:29.081Z,97370.00
2023-05-14T10:44:56.136Z,97199.44
2023-05-14T10:47:22.365Z,97442.28
2023-05-14T10:49:48.599Z,97733.47
2023-05-14T10:52:17.799Z,97431.91
2023-05-14T10:54:57.012Z,97628.00
2023-05-14T10:57:23.871Z,97751.84
2023-05-14T10:59:51.458Z,98554.34
2023-05-14T11:02:20.661Z,98298.56
2023-05-14T11:04:52.998Z,97981.59
2023-05-14T11:07:20.752Z,98368.88
2023-05-14T11:09:46.977Z,98160.91
2023-05-14T11:12:13.218Z,98381.75
2023-05-14T11:14:39.422Z,98591.09
2023-05-14T11:17:05.743Z,98738.25
2023-05-14T11:19:31.965Z,98608.47
2023-05-14T11:21:58.166Z,98560.31
2023-05-14T11:24:24.380Z,98611.09
2023-05-14T11:26:50.722Z,98451.81
2023-05-14T11:29:16.947Z,98821.06
2023-05-14T11:31:43.163Z,99014.13
2023-05-14T11:34:09.413Z,98621.88
2023-05-14T11:36:38.564Z,98852.28
2023-05-14T11:39:04.828Z,98833.72
2023-05-14T11:41:31.072Z,98891.84
2023-05-14T11:43:57.887Z,98993.69
2023-05-14T11:46:24.111Z,99014.63
2023-05-14T11:48:50.399Z,98855.19
2023-05-14T11:51:16.602Z,98412.94
2023-05-14T11:53:42.810Z,99044.16
2023-05-14T11:56:10.009Z,98349.53
2023-05-14T11:58:36.505Z,98472.59
2023-05-14T12:01:02.739Z,98672.03
2023-05-14T12:03:30.381Z,98791.63
2023-05-14T12:06:00.064Z,98878.16
2023-05-14T12:08:26.891Z,98723.22
2023-05-14T12:10:53.379Z,98164.53
2023-05-14T12:13:19.589Z,97909.44
2023-05-14T12:15:46.425Z,97862.97
2023-05-14T12:18:23.402Z,98268.03
2023-05-14T12:20:50.585Z,98143.16
2023-05-14T12:23:16.829Z,98195.56
2023-05-14T12:25:50.075Z,98409.84
2023-05-14T12:28:16.414Z,98155.16
2023-05-14T12:30:42.620Z,98243.28
2023-05-14T12:33:08.972Z,98653.88
2023-05-14T12:35:35.375Z,98852.56
2023-05-14T12:38:01.978Z,98600.31
2023-05-14T12:40:28.182Z,98198.03
2023-05-14T12:42:56.608Z,98391.94
2023-05-14T12:45:23.279Z,97978.75
2023-05-14T12:47:49.673Z,98281.72
2023-05-14T12:50:15.906Z,98034.66
2023-05-14T12:52:42.121Z,98572.81
2023-05-14T12:55:08.565Z,98427.38
2023-05-14T12:57:34.785Z,98595.75
2023-05-14T13:00:01.062Z,98463.19
2023-05-14T13:02:27.278Z,99143.28
2023-05-14T13:04:53.634Z,99463.78
2023-05-14T13:07:19.824Z,99563.81
2023-05-14T13:09:46.042Z,99721.53
2023-05-14T13:12:12.251Z,99816.63
2023-05-14T13:14:38.467Z,99953.00
2023-05-14T13:17:04.829Z,99836.78
2023-05-14T13:19:31.125Z,99701.06
2023-05-14T13:21:57.338Z,99829.81
2023-05-14T13:24:23.548Z,99798.50
2023-05-14T13:26:49.738Z,99682.09
2023-05-14T13:29:15.957Z,99861.31
2023-05-14T13:31:42.145Z,99810.34
2023-05-14T13:34:08.350Z,99618.34
2023-05-14T13:36:34.568Z,99855.00
2023-05-14T13:39:00.784Z,99665.59
2023-05-14T13:41:27.004Z,100056.22
2023-05-14T13:43:53.207Z,100003.00
2023-05-14T13:46:19.474Z,100021.28
2023-05-14T13:48:45.731Z,100037.88
2023-05-14T13:51:11.948Z,99929.03
2023-05-14T13:53:38.359Z,99831.69
2023-05-14T13:56:04.684Z,99782.22
2023-05-14T13:58:30.901Z,99605.09
2023-05-14T14:00:57.113Z,99015.38
2023-05-14T14:03:23.371Z,99584.66
2023-05-14T14:05:49.577Z,99945.34
2023-05-14T14:08:23.457Z,99347.22
2023-05-14T14:10:50.643Z,99871.53
2023-05-14T14:13:16.872Z,100006.47
2023-05-14T14:15:43.228Z,99813.56
2023-05-14T14:18:09.499Z,99463.56
2023-05-14T14:20:35.712Z,99215.50
2023-05-14T14:23:01.976Z,99049.25
2023-05-14T14:25:28.195Z,99033.50
2023-05-14T14:27:54.398Z,99104.34
2023-05-14T14:30:20.618Z,99403.16
2023-05-14T14:32:47.226Z,99482.44
2023-05-14T14:35:15.154Z,99471.56
2023-05-14T14:37:41.872Z,99155.81
2023-05-14T14:40:08.308Z,99678.25
2023-05-14T14:42:34.575Z,99273.00
2023-05-14T14:45:00.779Z,98993.59
2023-05-14T14:47:27.122Z,98492.97
2023-05-14T14:49:53.324Z,98771.81
2023-05-14T14:52:19.540Z,99159.75
2023-05-14T14:54:45.742Z,99299.16
2023-05-14T14:57:11.954Z,99027.66
2023-05-14T14:59:38.156Z,98761.03
2023-05-14T15:02:04.472Z,99005.53
2023-05-14T15:04:30.675Z,99478.03
2023-05-14T15:06:56.878Z,99447.72
2023-05-14T15:09:27.993Z,99660.72
2023-05-14T15:11:54.224Z,99974.88
2023-05-14T15:14:20.434Z,99816.88
2023-05-14T15:16:48.864Z,99970.88
2023-05-14T15:19:16.516Z,99863.31
2023-05-14T15:21:42.750Z,99974.31
2023-05-14T15:24:12.064Z,100049.13
2023-05-14T15:26:38.286Z,100020.22
2023-05-14T15:29:04.614Z,100045.38
2023-05-14T15:31:30.878Z,100106.16
2023-05-14T15:33:57.139Z,100151.09
2023-05-14T15:36:23.363Z,100092.03
2023-05-14T15:38:49.596Z,99806.31
2023-05-14T15:41:15.825Z,99867.63
2023-05-14T15:43:42.048Z,99927.91
2023-05-14T15:46:08.315Z,100045.81
2023-05-14T15:48:34.538Z,99903.28
2023-05-14T15:51:00.742Z,99899.16
2023-05-14T15:53:26.990Z,99910.13
2023-05-14T15:55:53.210Z,99846.19
2023-05-14T15:58:19.426Z,99789.94
2023-05-14T16:00:45.629Z,99731.31
2023-05-14T16:03:11.968Z,99625.69
2023-05-14T16:05:38.291Z,99603.25
2023-05-14T16:08:04.531Z,99875.84
2023-05-14T16:10:30.736Z,100167.66
2023-05-14T16:12:56.956Z,100318.09
2023-05-14T16:15:23.158Z,100402.75
2023-05-14T16:17:49.410Z,100139.34
2023-05-14T16:20:15.641Z,100578.88
2023-05-14T16:22:41.876Z,100689.94
2023-05-14T16:25:08.111Z,100533.63
2023-05-14T16:27:34.348Z,100512.41
2023-05-14T16:30:00.585Z,100314.88
2023-05-14T16:32:26.876Z,100028.28
2023-05-14T16:34:53.126Z,100255.47
2023-05-14T16:37:19.388Z,100299.78
2023-05-14T16:39:45.830Z,100192.41
2023-05-14T16:42:12.054Z,100188.53
2023-05-14T16:44:38.262Z,100459.22
2023-05-14T16:47:04.751Z,100375.19
2023-05-14T16:49:30.985Z,100429.31
2023-05-14T16:51:57.203Z,100385.06
2023-05-14T16:54:23.412Z,100539.91
2023-05-14T16:56:53.906Z,100572.25
2023-05-14T16:59:20.103Z,100622.88
2023-05-14T17:01:46.382Z,100395.72
2023-05-14T17:04:12.668Z,100485.47
2023-05-14T17:06:38.982Z,100657.81
2023-05-14T17:09:05.204Z,100734.59
2023-05-14T17:11:31.443Z,100855.78
2023-05-14T17:13:57.657Z,100799.91
2023-05-14T17:16:23.899Z,100711.59
2023-05-14T17:18:50.328Z,100460.22
2023-05-14T17:21:16.601Z,100270.25
2023-05-14T17:23:42.822Z,100345.63
2023-05-14T17:26:09.294Z,100255.28
2023-05-14T17:28:35.529Z,100201.94
2023-05-14T17:31:01.847Z,100211.19
2023-05-14T17:33:28.204Z,100299.53
2023-05-14T17:35:54.442Z,100338.03
2023-05-14T17:38:20.744Z,100316.84
2023-05-14T17:40:46.943Z,100396.06
2023-05-14T17:43:13.171Z,100417.97
2023-05-14T17:45:52.663Z,100409.66
2023-05-14T17:48:20.418Z,100480.47
2023-05-14T17:50:46.637Z,100586.06
2023-05-14T17:53:12.888Z,100581.22
2023-05-14T17:55:39.123Z,100629.25
2023-05-14T17:58:05.706Z,100573.66
2023-05-14T18:00:31.963Z,100478.28
2023-05-14T18:02:58.285Z,100467.25
2023-05-14T18:05:24.665Z,100461.81
2023-05-14T18:07:51.112Z,100449.97
2023-05-14T18:10:17.323Z,100413.66
2023-05-14T18:12:43.542Z,100404.22
2023-05-14T18:15:09.843Z,100479.50
2023-05-14T18:17:36.063Z,100625.72
2023-05-14T18:20:02.284Z,100787.34
2023-05-14T18:22:28.504Z,100808.06
2023-05-14T18:24:54.711Z,100699.53
2023-05-14T18:27:20.917Z,100732.25
2023-05-14T18:29:47.116Z,100671.34
2023-05-14T18:32:13.333Z,100571.31
2023-05-14T18:34:39.551Z,100527.59
2023-05-14T18:37:05.763Z,100495.81
2023-05-14T18:39:31.970Z,100443.25
2023-05-14T18:41:58.185Z,100441.34
2023-05-14T18:44:24.386Z,100411.09
2023-05-14T18:46:50.669Z,100400.34
2023-05-14T18:49:16.906Z,100392.00
2023-05-14T18:51:43.123Z,100399.25
2023-05-14T18:54:09.315Z,100379.53
2023-05-14T18:56:35.605Z,100432.47
2023-05-14T18:59:01.816Z,100446.44
2023-05-14T19:01:28.113Z,100463.53
2023-05-14T19:03:54.583Z,100475.06
2023-05-14T19:06:20.895Z,100501.88
2023-05-14T19:08:47.104Z,100512.44
2023-05-14T19:11:13.317Z,100514.00
2023-05-14T19:13:39.551Z,100613.09
2023-05-14T19:16:05.806Z,100604.88
2023-05-14T19:18:32.046Z,100625.22
2023-05-14T19:20:58.282Z,100593.50
2023-05-14T19:23:24.503Z,100632.38
2023-05-14T19:25:50.713Z,100706.72
2023-05-14T19:28:16.931Z,100780.25
2023-05-14T19:30:43.156Z,100733.97
2023-05-14T19:33:09.412Z,100686.69
2023-05-14T19:35:35.745Z,100706.38
2023-05-14T19:38:01.965Z,100781.72
2023-05-14T19:40:28.166Z,100765.97
2023-05-14T19:42:54.381Z,100980.25
2023-05-14T19:45:20.605Z,100898.72
2023-05-14T19:47:46.985Z,100801.91
2023-05-14T19:50:13.216Z,100819.13
2023-05-14T19:52:39.427Z,100869.72
2023-05-14T19:55:05.698Z,100758.66
2023-05-14T19:57:31.916Z,100702.72
2023-05-14T19:59:58.147Z,100694.06
2023-05-14T20:02:24.461Z,100701.97
2023-05-14T20:04:50.740Z,100819.56
2023-05-14T20:07:16.977Z,100807.56
2023-05-14T20:09:43.185Z,100770.13
2023-05-14T20:12:09.412Z,100753.50
2023-05-14T20:14:35.613Z,100716.56
2023-05-14T20:17:01.879Z,100714.44
2023-05-14T20:19:28.113Z,100741.72
2023-05-14T20:21:54.353Z,100874.06
2023-05-14T20:24:20.554Z,100805.00
2023-05-14T20:26:46.818Z,100743.84
2023-05-14T20:29:13.021Z,100815.34
2023-05-14T20:31:39.245Z,100754.19
2023-05-14T20:34:05.452Z,100777.38
2023-05-14T20:36:31.665Z,100727.53
2023-05-14T20:38:57.875Z,100733.91
2023-05-14T20:41:24.078Z,100698.28
2023-05-14T20:43:50.285Z,100708.34
2023-05-14T20:46:16.544Z,100691.75
2023-05-14T20:48:42.789Z,100717.56
2023-05-14T20:51:09.017Z,100706.25
2023-05-14T20:53:35.252Z,100673.59
2023-05-14T20:56:01.469Z,100660.44
2023-05-14T20:58:27.667Z,100657.00
2023-05-14T21:00:53.888Z,100649.91
2023-05-14T21:03:20.250Z,100665.00
2023-05-14T21:05:46.570Z,100761.56
2023-05-14T21:08:12.805Z,100787.09
2023-05-14T21:10:39.041Z,100754.91
2023-05-14T21:13:05.265Z,100722.50
2023-05-14T21:15:31.489Z,100741.81
2023-05-14T21:17:57.776Z,100720.47
2023-05-14T21:20:24.035Z,100708.31
2023-05-14T21:22:50.246Z,100692.00
2023-05-14T21:25:16.460Z,100658.84
2023-05-14T21:27:42.665Z,100651.25
2023-05-14T21:30:09.128Z,100647.03
2023-05-14T21:32:35.379Z,100650.47
2023-05-14T21:35:01.655Z,100659.16
2023-05-14T21:37:27.863Z,100666.75
2023-05-14T21:39:54.105Z,100662.78
2023-05-14T21:42:20.314Z,100637.78
2023-05-14T21:44:46.659Z,100642.84
2023-05-14T21:47:12.858Z,100638.41
2023-05-14T21:49:39.100Z,100624.19
2023-05-14T21:52:05.324Z,100642.63
2023-05-14T21:54:31.565Z,100822.91
2023-05-14T21:56:57.774Z,100841.72
2023-05-14T21:59:23.995Z,100752.75
2023-05-14T22:02:06.181Z,100697.22
2023-05-14T22:04:33.424Z,100665.63
2023-05-14T22:06:59.637Z,100660.66
2023-05-14T22:09:25.883Z,100657.75
2023-05-14T22:11:52.107Z,100626.47
2023-05-14T22:14:18.352Z,100628.59
2023-05-14T22:16:44.597Z,100751.31
2023-05-14T22:19:10.869Z,100990.56
2023-05-14T22:21:37.101Z,101074.91
2023-05-14T22:24:03.383Z,101056.25
2023-05-14T22:26:29.585Z,100941.75
2023-05-14T22:28:55.823Z,100924.63
2023-05-14T22:31:22.116Z,100837.91
2023-05-14T22:33:48.386Z,100736.34
2023-05-14T22:36:14.605Z,100686.06
2023-05-14T22:38:40.804Z,100640.03
2023-05-14T22:41:07.010Z,100629.00
2023-05-14T22:43:33.232Z,100596.38
2023-05-14T22:45:59.487Z,100571.09
2023-05-14T22:48:25.680Z,100731.41
2023-05-14T22:50:51.905Z,100729.31
2023-05-14T22:53:18.123Z,100695.31
2023-05-14T22:55:44.337Z,100713.06
2023-05-14T22:58:10.540Z,100812.72
2023-05-14T23:00:36.789Z,100859.47
2023-05-14T23:03:03.057Z,100889.91
2023-05-14T23:05:29.289Z,100818.50
2023-05-14T23:07:55.497Z,100741.50
2023-05-14T23:10:21.721Z,100785.41
2023-05-14T23:12:47.934Z,100756.22
2023-05-14T23:15:14.173Z,100686.28
2023-05-14T23:17:40.442Z,100604.75
2023-05-14T23:20:07.040Z,100565.28
2023-05-14T23:22:33.258Z,100531.63
2023-05-14T23:24:59.488Z,100488.75
2023-05-14T23:27:25.688Z,100484.84
2023-05-14T23:29:51.900Z,100477.50
2023-05-14T23:32:18.181Z,100481.75
2023-05-14T23:34:44.457Z,100464.91
2023-05-14T23:37:10.674Z,100464.41
2023-05-14T23:39:36.895Z,100450.75
2023-05-14T23:42:03.136Z,100449.97
2023-05-14T23:44:29.357Z,100442.06
2023-05-14T23:46:55.565Z,100474.03
2023-05-14T23:49:21.763Z,100673.28
2023-05-14T23:51:47.978Z,100741.56
2023-05-14T23:54:14.170Z,100667.44
2023-05-14T23:56:40.440Z,100593.59
2023-05-14T23:59:06.662Z,100535.53
